sensor_id;sensor_type;location;lat;lon;timestamp;P1;durP1;ratioP1;P2;durP2;ratioP2
41984;SDS011;28319;48.116;10.818;2023-11-18T00:01:39;1.43;;;1.43;;
41984;SDS011;28319;48.116;10.818;2023-11-18T00:06:41;1.70;;;1.60;;
41984;SDS011;28319;48.116;10.818;2023-11-18T00:11:44;1.60;;;1.50;;
41984;SDS011;28319;48.116;10.818;2023-11-18T00:16:47;1.40;;;1.40;;
41984;SDS011;28319;48.116;10.818;2023-11-18T00:21:50;1.23;;;1.20;;
41984;SDS011;28319;48.116;10.818;2023-11-18T00:26:52;1.43;;;1.43;;
41984;SDS011;28319;48.116;10.818;2023-11-18T00:31:56;1.60;;;1.50;;
41984;SDS011;28319;48.116;10.818;2023-11-18T00:36:58;1.60;;;1.50;;
41984;SDS011;28319;48.116;10.818;2023-11-18T00:42:00;1.57;;;1.50;;
41984;SDS011;28319;48.116;10.818;2023-11-18T00:47:04;1.53;;;1.43;;
41984;SDS011;28319;48.116;10.818;2023-11-18T00:52:07;1.90;;;1.80;;
41984;SDS011;28319;48.116;10.818;2023-11-18T00:57:09;1.60;;;1.50;;
41984;SDS011;28319;48.116;10.818;2023-11-18T01:02:13;1.83;;;1.73;;
41984;SDS011;28319;48.116;10.818;2023-11-18T01:07:14;1.97;;;1.87;;
41984;SDS011;28319;48.116;10.818;2023-11-18T01:12:17;1.77;;;1.67;;
41984;SDS011;28319;48.116;10.818;2023-11-18T01:17:20;1.80;;;1.70;;
41984;SDS011;28319;48.116;10.818;2023-11-18T01:22:22;1.97;;;1.87;;
41984;SDS011;28319;48.116;10.818;2023-11-18T01:27:24;1.80;;;1.70;;
41984;SDS011;28319;48.116;10.818;2023-11-18T01:32:27;1.80;;;1.70;;
41984;SDS011;28319;48.116;10.818;2023-11-18T01:37:30;1.90;;;1.80;;
41984;SDS011;28319;48.116;10.818;2023-11-18T01:42:32;2.20;;;2.00;;
41984;SDS011;28319;48.116;10.818;2023-11-18T01:47:36;2.60;;;2.40;;
41984;SDS011;28319;48.116;10.818;2023-11-18T01:52:39;2.63;;;2.20;;
41984;SDS011;28319;48.116;10.818;2023-11-18T01:57:41;2.40;;;2.20;;
41984;SDS011;28319;48.116;10.818;2023-11-18T02:02:46;2.70;;;2.50;;
41984;SDS011;28319;48.116;10.818;2023-11-18T02:07:49;2.50;;;2.30;;
41984;SDS011;28319;48.116;10.818;2023-11-18T02:12:53;2.33;;;2.13;;
41984;SDS011;28319;48.116;10.818;2023-11-18T02:18:03;2.43;;;2.23;;
41984;SDS011;28319;48.116;10.818;2023-11-18T02:23:09;2.60;;;2.40;;
41984;SDS011;28319;48.116;10.818;2023-11-18T02:28:13;2.87;;;2.40;;
41984;SDS011;28319;48.116;10.818;2023-11-18T02:33:17;2.93;;;2.73;;
41984;SDS011;28319;48.116;10.818;2023-11-18T02:38:26;2.70;;;2.50;;
41984;SDS011;28319;48.116;10.818;2023-11-18T02:43:33;2.87;;;2.67;;
41984;SDS011;28319;48.116;10.818;2023-11-18T02:48:40;2.97;;;2.73;;
41984;SDS011;28319;48.116;10.818;2023-11-18T02:53:42;3.03;;;2.80;;
41984;SDS011;28319;48.116;10.818;2023-11-18T02:58:46;3.07;;;2.53;;
41984;SDS011;28319;48.116;10.818;2023-11-18T03:03:48;4.20;;;2.53;;
41984;SDS011;28319;48.116;10.818;2023-11-18T03:08:50;2.80;;;2.60;;
41984;SDS011;28319;48.116;10.818;2023-11-18T03:13:54;2.97;;;2.63;;
41984;SDS011;28319;48.116;10.818;2023-11-18T03:18:56;4.53;;;2.67;;
41984;SDS011;28319;48.116;10.818;2023-11-18T03:23:59;2.80;;;2.60;;
41984;SDS011;28319;48.116;10.818;2023-11-18T03:29:02;2.83;;;2.63;;
41984;SDS011;28319;48.116;10.818;2023-11-18T03:34:04;2.60;;;2.40;;
41984;SDS011;28319;48.116;10.818;2023-11-18T03:39:06;3.30;;;2.57;;
41984;SDS011;28319;48.116;10.818;2023-11-18T03:44:13;3.43;;;2.50;;
41984;SDS011;28319;48.116;10.818;2023-11-18T03:49:17;3.13;;;2.90;;
41984;SDS011;28319;48.116;10.818;2023-11-18T03:54:20;4.03;;;2.73;;
41984;SDS011;28319;48.116;10.818;2023-11-18T03:59:25;2.77;;;2.57;;
41984;SDS011;28319;48.116;10.818;2023-11-18T04:04:27;2.90;;;2.70;;
41984;SDS011;28319;48.116;10.818;2023-11-18T04:09:29;3.20;;;2.40;;
41984;SDS011;28319;48.116;10.818;2023-11-18T04:14:33;2.93;;;2.73;;
41984;SDS011;28319;48.116;10.818;2023-11-18T04:19:35;2.80;;;2.60;;
41984;SDS011;28319;48.116;10.818;2023-11-18T04:24:39;2.57;;;2.37;;
41984;SDS011;28319;48.116;10.818;2023-11-18T04:29:43;3.87;;;2.13;;
41984;SDS011;28319;48.116;10.818;2023-11-18T04:34:45;3.53;;;2.77;;
41984;SDS011;28319;48.116;10.818;2023-11-18T04:39:49;3.37;;;2.70;;
41984;SDS011;28319;48.116;10.818;2023-11-18T04:44:53;2.67;;;2.47;;
41984;SDS011;28319;48.116;10.818;2023-11-18T04:49:55;2.90;;;2.47;;
41984;SDS011;28319;48.116;10.818;2023-11-18T04:54:57;2.90;;;2.70;;
41984;SDS011;28319;48.116;10.818;2023-11-18T05:00:02;2.70;;;2.50;;
41984;SDS011;28319;48.116;10.818;2023-11-18T05:05:10;2.53;;;2.33;;
41984;SDS011;28319;48.116;10.818;2023-11-18T05:10:12;4.00;;;2.40;;
41984;SDS011;28319;48.116;10.818;2023-11-18T05:15:16;3.10;;;2.77;;
41984;SDS011;28319;48.116;10.818;2023-11-18T05:20:18;2.97;;;2.70;;
41984;SDS011;28319;48.116;10.818;2023-11-18T05:25:21;3.80;;;3.40;;
41984;SDS011;28319;48.116;10.818;2023-11-18T05:30:26;3.43;;;3.10;;
41984;SDS011;28319;48.116;10.818;2023-11-18T05:35:28;2.90;;;2.70;;
41984;SDS011;28319;48.116;10.818;2023-11-18T05:40:30;3.47;;;3.17;;
41984;SDS011;28319;48.116;10.818;2023-11-18T05:45:33;3.47;;;2.97;;
41984;SDS011;28319;48.116;10.818;2023-11-18T05:50:55;3.47;;;3.03;;
41984;SDS011;28319;48.116;10.818;2023-11-18T05:55:57;2.90;;;2.70;;
41984;SDS011;28319;48.116;10.818;2023-11-18T06:01:01;3.37;;;3.07;;
41984;SDS011;28319;48.116;10.818;2023-11-18T06:06:06;3.33;;;3.03;;
41984;SDS011;28319;48.116;10.818;2023-11-18T06:11:08;3.77;;;3.37;;
41984;SDS011;28319;48.116;10.818;2023-11-18T06:16:15;3.27;;;2.97;;
41984;SDS011;28319;48.116;10.818;2023-11-18T06:21:20;3.00;;;2.80;;
41984;SDS011;28319;48.116;10.818;2023-11-18T06:26:25;2.43;;;2.23;;
41984;SDS011;28319;48.116;10.818;2023-11-18T06:31:29;3.17;;;2.63;;
41984;SDS011;28319;48.116;10.818;2023-11-18T06:36:32;3.13;;;2.80;;
41984;SDS011;28319;48.116;10.818;2023-11-18T06:41:34;3.53;;;2.70;;
41984;SDS011;28319;48.116;10.818;2023-11-18T06:46:39;2.97;;;2.60;;
41984;SDS011;28319;48.116;10.818;2023-11-18T06:51:41;3.43;;;2.93;;
41984;SDS011;28319;48.116;10.818;2023-11-18T06:56:43;2.80;;;2.60;;
41984;SDS011;28319;48.116;10.818;2023-11-18T07:01:47;3.20;;;3.00;;
41984;SDS011;28319;48.116;10.818;2023-11-18T07:06:49;3.60;;;2.50;;
41984;SDS011;28319;48.116;10.818;2023-11-18T07:11:51;2.60;;;2.40;;
41984;SDS011;28319;48.116;10.818;2023-11-18T07:16:54;2.80;;;2.60;;
41984;SDS011;28319;48.116;10.818;2023-11-18T07:21:56;3.60;;;2.67;;
41984;SDS011;28319;48.116;10.818;2023-11-18T07:26:59;3.00;;;2.80;;
41984;SDS011;28319;48.116;10.818;2023-11-18T07:32:02;2.63;;;2.43;;
41984;SDS011;28319;48.116;10.818;2023-11-18T07:37:05;3.00;;;2.80;;
41984;SDS011;28319;48.116;10.818;2023-11-18T07:42:08;4.27;;;3.10;;
41984;SDS011;28319;48.116;10.818;2023-11-18T07:47:11;3.40;;;3.20;;
41984;SDS011;28319;48.116;10.818;2023-11-18T07:52:16;3.23;;;3.00;;
41984;SDS011;28319;48.116;10.818;2023-11-18T07:57:19;2.87;;;2.67;;
41984;SDS011;28319;48.116;10.818;2023-11-18T08:02:25;4.90;;;3.50;;
41984;SDS011;28319;48.116;10.818;2023-11-18T08:07:28;2.83;;;2.63;;
41984;SDS011;28319;48.116;10.818;2023-11-18T08:12:30;4.57;;;3.40;;
41984;SDS011;28319;48.116;10.818;2023-11-18T08:17:33;3.33;;;3.07;;
41984;SDS011;28319;48.116;10.818;2023-11-18T08:22:35;5.60;;;4.20;;
41984;SDS011;28319;48.116;10.818;2023-11-18T08:27:37;5.23;;;4.10;;
41984;SDS011;28319;48.116;10.818;2023-11-18T08:32:41;7.57;;;4.80;;
41984;SDS011;28319;48.116;10.818;2023-11-18T08:37:45;6.13;;;4.57;;
41984;SDS011;28319;48.116;10.818;2023-11-18T08:42:48;7.87;;;5.43;;
41984;SDS011;28319;48.116;10.818;2023-11-18T08:47:52;2.80;;;2.60;;
41984;SDS011;28319;48.116;10.818;2023-11-18T08:52:55;3.77;;;2.90;;
41984;SDS011;28319;48.116;10.818;2023-11-18T08:57:58;3.10;;;2.80;;
41984;SDS011;28319;48.116;10.818;2023-11-18T09:03:05;4.10;;;3.03;;
41984;SDS011;28319;48.116;10.818;2023-11-18T09:08:07;2.93;;;2.73;;
41984;SDS011;28319;48.116;10.818;2023-11-18T09:13:12;3.20;;;2.47;;
41984;SDS011;28319;48.116;10.818;2023-11-18T09:18:16;4.03;;;2.70;;
41984;SDS011;28319;48.116;10.818;2023-11-18T09:23:20;2.90;;;2.60;;
41984;SDS011;28319;48.116;10.818;2023-11-18T09:28:25;3.20;;;2.90;;
41984;SDS011;28319;48.116;10.818;2023-11-18T09:33:31;2.57;;;2.37;;
41984;SDS011;28319;48.116;10.818;2023-11-18T09:38:35;2.70;;;2.50;;
41984;SDS011;28319;48.116;10.818;2023-11-18T09:43:37;2.37;;;2.10;;
41984;SDS011;28319;48.116;10.818;2023-11-18T09:48:47;3.80;;;2.13;;
41984;SDS011;28319;48.116;10.818;2023-11-18T09:53:53;2.50;;;2.30;;
41984;SDS011;28319;48.116;10.818;2023-11-18T09:59:01;1.87;;;1.70;;
41984;SDS011;28319;48.116;10.818;2023-11-18T10:04:09;1.80;;;1.70;;
41984;SDS011;28319;48.116;10.818;2023-11-18T10:09:12;1.97;;;1.87;;
41984;SDS011;28319;48.116;10.818;2023-11-18T10:14:19;1.80;;;1.70;;
41984;SDS011;28319;48.116;10.818;2023-11-18T10:19:22;2.50;;;1.80;;
41984;SDS011;28319;48.116;10.818;2023-11-18T10:24:26;2.10;;;1.93;;
41984;SDS011;28319;48.116;10.818;2023-11-18T10:29:30;2.07;;;1.50;;
41984;SDS011;28319;48.116;10.818;2023-11-18T10:34:34;2.57;;;1.80;;
41984;SDS011;28319;48.116;10.818;2023-11-18T10:39:36;3.47;;;2.97;;
41984;SDS011;28319;48.116;10.818;2023-11-18T10:44:40;3.10;;;1.60;;
41984;SDS011;28319;48.116;10.818;2023-11-18T10:49:58;1.73;;;1.27;;
41984;SDS011;28319;48.116;10.818;2023-11-18T10:55:01;1.93;;;1.37;;
41984;SDS011;28319;48.116;10.818;2023-11-18T11:00:11;1.83;;;1.17;;
41984;SDS011;28319;48.116;10.818;2023-11-18T11:05:18;1.63;;;1.53;;
41984;SDS011;28319;48.116;10.818;2023-11-18T11:10:32;6.13;;;5.37;;
41984;SDS011;28319;48.116;10.818;2023-11-18T11:15:36;1.87;;;1.70;;
41984;SDS011;28319;48.116;10.818;2023-11-18T11:20:56;2.33;;;1.40;;
41984;SDS011;28319;48.116;10.818;2023-11-18T11:26:06;1.57;;;1.47;;
41984;SDS011;28319;48.116;10.818;2023-11-18T11:31:17;1.90;;;1.80;;
41984;SDS011;28319;48.116;10.818;2023-11-18T11:36:25;1.60;;;1.50;;
41984;SDS011;28319;48.116;10.818;2023-11-18T11:41:34;1.57;;;1.47;;
41984;SDS011;28319;48.116;10.818;2023-11-18T11:46:37;1.50;;;1.40;;
41984;SDS011;28319;48.116;10.818;2023-11-18T11:51:44;1.53;;;1.43;;
41984;SDS011;28319;48.116;10.818;2023-11-18T11:56:50;2.17;;;1.47;;
41984;SDS011;28319;48.116;10.818;2023-11-18T12:01:55;1.50;;;1.40;;
41984;SDS011;28319;48.116;10.818;2023-11-18T12:06:59;2.00;;;0.80;;
41984;SDS011;28319;48.116;10.818;2023-11-18T12:12:03;1.33;;;1.00;;
41984;SDS011;28319;48.116;10.818;2023-11-18T12:17:10;0.80;;;0.80;;
41984;SDS011;28319;48.116;10.818;2023-11-18T12:22:15;1.70;;;1.10;;
41984;SDS011;28319;48.116;10.818;2023-11-18T12:27:43;1.60;;;1.50;;
41984;SDS011;28319;48.116;10.818;2023-11-18T12:32:57;1.20;;;1.20;;
41984;SDS011;28319;48.116;10.818;2023-11-18T12:43:48;0.80;;;0.80;;
41984;SDS011;28319;48.116;10.818;2023-11-18T12:48:58;1.40;;;1.00;;
41984;SDS011;28319;48.116;10.818;2023-11-18T12:54:03;4.53;;;1.10;;
41984;SDS011;28319;48.116;10.818;2023-11-18T12:59:07;2.23;;;2.00;;
41984;SDS011;28319;48.116;10.818;2023-11-18T13:04:09;1.00;;;0.90;;
41984;SDS011;28319;48.116;10.818;2023-11-18T13:09:15;1.50;;;1.30;;
41984;SDS011;28319;48.116;10.818;2023-11-18T13:14:25;1.37;;;1.37;;
41984;SDS011;28319;48.116;10.818;2023-11-18T13:19:30;1.53;;;0.70;;
41984;SDS011;28319;48.116;10.818;2023-11-18T13:24:36;3.33;;;1.30;;
41984;SDS011;28319;48.116;10.818;2023-11-18T13:29:43;3.20;;;1.67;;
41984;SDS011;28319;48.116;10.818;2023-11-18T13:34:49;1.73;;;1.27;;
41984;SDS011;28319;48.116;10.818;2023-11-18T13:39:56;2.13;;;1.03;;
41984;SDS011;28319;48.116;10.818;2023-11-18T13:45:00;1.40;;;1.30;;
41984;SDS011;28319;48.116;10.818;2023-11-18T13:50:08;3.53;;;3.23;;
41984;SDS011;28319;48.116;10.818;2023-11-18T13:55:16;6.00;;;3.60;;
41984;SDS011;28319;48.116;10.818;2023-11-18T14:00:25;1.10;;;1.10;;
41984;SDS011;28319;48.116;10.818;2023-11-18T14:05:28;2.00;;;1.10;;
41984;SDS011;28319;48.116;10.818;2023-11-18T14:10:35;1.20;;;1.20;;
41984;SDS011;28319;48.116;10.818;2023-11-18T14:15:38;1.17;;;1.13;;
41984;SDS011;28319;48.116;10.818;2023-11-18T14:20:42;2.37;;;1.40;;
41984;SDS011;28319;48.116;10.818;2023-11-18T14:25:46;0.90;;;0.90;;
41984;SDS011;28319;48.116;10.818;2023-11-18T14:30:48;1.40;;;0.73;;
41984;SDS011;28319;48.116;10.818;2023-11-18T14:35:50;1.50;;;1.20;;
41984;SDS011;28319;48.116;10.818;2023-11-18T14:40:55;0.90;;;0.90;;
41984;SDS011;28319;48.116;10.818;2023-11-18T14:45:57;1.57;;;1.47;;
41984;SDS011;28319;48.116;10.818;2023-11-18T14:50:59;1.03;;;1.03;;
41984;SDS011;28319;48.116;10.818;2023-11-18T14:56:03;0.80;;;0.70;;
41984;SDS011;28319;48.116;10.818;2023-11-18T15:01:06;0.90;;;0.90;;
41984;SDS011;28319;48.116;10.818;2023-11-18T15:06:10;1.03;;;1.03;;
41984;SDS011;28319;48.116;10.818;2023-11-18T15:11:14;1.00;;;1.00;;
41984;SDS011;28319;48.116;10.818;2023-11-18T15:16:23;1.30;;;1.20;;
41984;SDS011;28319;48.116;10.818;2023-11-18T15:21:25;1.43;;;0.93;;
41984;SDS011;28319;48.116;10.818;2023-11-18T15:26:31;1.10;;;1.10;;
41984;SDS011;28319;48.116;10.818;2023-11-18T15:31:33;1.20;;;1.10;;
41984;SDS011;28319;48.116;10.818;2023-11-18T15:36:39;1.17;;;1.07;;
41984;SDS011;28319;48.116;10.818;2023-11-18T15:41:44;1.07;;;0.80;;
41984;SDS011;28319;48.116;10.818;2023-11-18T15:46:47;1.10;;;1.10;;
41984;SDS011;28319;48.116;10.818;2023-11-18T15:51:49;2.47;;;1.20;;
41984;SDS011;28319;48.116;10.818;2023-11-18T15:56:53;1.30;;;1.20;;
41984;SDS011;28319;48.116;10.818;2023-11-18T16:01:56;2.53;;;1.13;;
41984;SDS011;28319;48.116;10.818;2023-11-18T16:06:57;1.97;;;1.50;;
41984;SDS011;28319;48.116;10.818;2023-11-18T16:12:01;1.80;;;1.37;;
41984;SDS011;28319;48.116;10.818;2023-11-18T16:17:04;2.53;;;2.33;;
41984;SDS011;28319;48.116;10.818;2023-11-18T16:22:07;7.47;;;3.40;;
41984;SDS011;28319;48.116;10.818;2023-11-18T16:27:10;8.27;;;4.57;;
41984;SDS011;28319;48.116;10.818;2023-11-18T16:32:12;11.40;;;5.60;;
41984;SDS011;28319;48.116;10.818;2023-11-18T16:37:14;11.50;;;7.20;;
41984;SDS011;28319;48.116;10.818;2023-11-18T16:42:18;3.03;;;1.63;;
41984;SDS011;28319;48.116;10.818;2023-11-18T16:47:23;1.80;;;1.70;;
41984;SDS011;28319;48.116;10.818;2023-11-18T16:52:25;1.67;;;1.57;;
41984;SDS011;28319;48.116;10.818;2023-11-18T16:57:28;3.23;;;1.97;;
41984;SDS011;28319;48.116;10.818;2023-11-18T17:02:30;2.50;;;2.27;;
41984;SDS011;28319;48.116;10.818;2023-11-18T17:07:32;15.90;;;8.50;;
41984;SDS011;28319;48.116;10.818;2023-11-18T17:12:36;19.93;;;8.73;;
41984;SDS011;28319;48.116;10.818;2023-11-18T17:17:38;5.90;;;4.13;;
41984;SDS011;28319;48.116;10.818;2023-11-18T17:22:40;3.20;;;2.07;;
41984;SDS011;28319;48.116;10.818;2023-11-18T17:27:45;1.63;;;1.53;;
41984;SDS011;28319;48.116;10.818;2023-11-18T17:32:48;2.50;;;2.27;;
41984;SDS011;28319;48.116;10.818;2023-11-18T17:37:51;2.37;;;2.17;;
41984;SDS011;28319;48.116;10.818;2023-11-18T17:42:55;3.67;;;2.43;;
41984;SDS011;28319;48.116;10.818;2023-11-18T17:47:57;2.57;;;2.10;;
41984;SDS011;28319;48.116;10.818;2023-11-18T17:52:59;2.20;;;1.90;;
41984;SDS011;28319;48.116;10.818;2023-11-18T17:58:04;2.67;;;2.33;;
41984;SDS011;28319;48.116;10.818;2023-11-18T18:03:06;2.40;;;2.20;;
41984;SDS011;28319;48.116;10.818;2023-11-18T18:08:08;2.30;;;2.10;;
41984;SDS011;28319;48.116;10.818;2023-11-18T18:13:13;2.10;;;1.90;;
41984;SDS011;28319;48.116;10.818;2023-11-18T18:18:15;2.53;;;2.30;;
41984;SDS011;28319;48.116;10.818;2023-11-18T18:23:17;2.83;;;2.57;;
41984;SDS011;28319;48.116;10.818;2023-11-18T18:28:21;2.80;;;1.93;;
41984;SDS011;28319;48.116;10.818;2023-11-18T18:33:22;4.37;;;2.20;;
41984;SDS011;28319;48.116;10.818;2023-11-18T18:38:24;2.43;;;2.23;;
41984;SDS011;28319;48.116;10.818;2023-11-18T18:43:28;2.90;;;2.70;;
41984;SDS011;28319;48.116;10.818;2023-11-18T18:48:30;1.80;;;1.70;;
41984;SDS011;28319;48.116;10.818;2023-11-18T18:53:32;1.70;;;1.60;;
41984;SDS011;28319;48.116;10.818;2023-11-18T18:58:35;3.17;;;2.43;;
41984;SDS011;28319;48.116;10.818;2023-11-18T19:03:37;3.00;;;2.00;;
41984;SDS011;28319;48.116;10.818;2023-11-18T19:08:40;2.43;;;2.17;;
41984;SDS011;28319;48.116;10.818;2023-11-18T19:13:43;3.20;;;2.73;;
41984;SDS011;28319;48.116;10.818;2023-11-18T19:18:45;2.33;;;2.13;;
41984;SDS011;28319;48.116;10.818;2023-11-18T19:23:48;2.57;;;2.00;;
41984;SDS011;28319;48.116;10.818;2023-11-18T19:28:51;2.60;;;2.40;;
41984;SDS011;28319;48.116;10.818;2023-11-18T19:33:53;2.33;;;2.13;;
41984;SDS011;28319;48.116;10.818;2023-11-18T19:38:55;4.37;;;3.97;;
41984;SDS011;28319;48.116;10.818;2023-11-18T19:44:01;2.77;;;2.57;;
41984;SDS011;28319;48.116;10.818;2023-11-18T19:49:04;1.70;;;1.60;;
41984;SDS011;28319;48.116;10.818;2023-11-18T19:54:06;3.40;;;2.53;;
41984;SDS011;28319;48.116;10.818;2023-11-18T19:59:11;2.90;;;2.57;;
41984;SDS011;28319;48.116;10.818;2023-11-18T20:04:13;1.70;;;1.60;;
41984;SDS011;28319;48.116;10.818;2023-11-18T20:09:15;8.10;;;4.77;;
41984;SDS011;28319;48.116;10.818;2023-11-18T20:14:18;1.97;;;1.87;;
41984;SDS011;28319;48.116;10.818;2023-11-18T20:19:22;1.97;;;1.87;;
41984;SDS011;28319;48.116;10.818;2023-11-18T20:24:24;2.03;;;1.90;;
41984;SDS011;28319;48.116;10.818;2023-11-18T20:29:28;1.60;;;1.50;;
41984;SDS011;28319;48.116;10.818;2023-11-18T20:34:34;2.13;;;1.63;;
41984;SDS011;28319;48.116;10.818;2023-11-18T20:39:36;1.40;;;1.30;;
41984;SDS011;28319;48.116;10.818;2023-11-18T20:44:39;1.37;;;1.27;;
41984;SDS011;28319;48.116;10.818;2023-11-18T20:49:41;1.93;;;1.60;;
41984;SDS011;28319;48.116;10.818;2023-11-18T20:54:43;1.37;;;1.27;;
41984;SDS011;28319;48.116;10.818;2023-11-18T20:59:47;1.63;;;1.50;;
41984;SDS011;28319;48.116;10.818;2023-11-18T21:04:49;1.23;;;1.13;;
41984;SDS011;28319;48.116;10.818;2023-11-18T21:09:51;1.43;;;1.33;;
41984;SDS011;28319;48.116;10.818;2023-11-18T21:14:56;1.20;;;1.10;;
41984;SDS011;28319;48.116;10.818;2023-11-18T21:19:59;0.87;;;0.87;;
41984;SDS011;28319;48.116;10.818;2023-11-18T21:25:03;1.10;;;1.00;;
41984;SDS011;28319;48.116;10.818;2023-11-18T21:30:08;1.50;;;1.07;;
41984;SDS011;28319;48.116;10.818;2023-11-18T21:35:10;1.13;;;1.03;;
41984;SDS011;28319;48.116;10.818;2023-11-18T21:40:14;1.40;;;1.30;;
41984;SDS011;28319;48.116;10.818;2023-11-18T21:45:18;1.30;;;1.30;;
41984;SDS011;28319;48.116;10.818;2023-11-18T21:50:23;1.27;;;1.23;;
41984;SDS011;28319;48.116;10.818;2023-11-18T21:55:25;1.80;;;1.23;;
41984;SDS011;28319;48.116;10.818;2023-11-18T22:00:30;1.70;;;1.60;;
41984;SDS011;28319;48.116;10.818;2023-11-18T22:05:32;1.17;;;1.17;;
41984;SDS011;28319;48.116;10.818;2023-11-18T22:10:34;1.20;;;1.10;;
41984;SDS011;28319;48.116;10.818;2023-11-18T22:15:37;1.50;;;1.40;;
41984;SDS011;28319;48.116;10.818;2023-11-18T22:20:39;3.47;;;3.10;;
41984;SDS011;28319;48.116;10.818;2023-11-18T22:25:43;1.77;;;1.67;;
41984;SDS011;28319;48.116;10.818;2023-11-18T22:30:49;1.33;;;1.23;;
41984;SDS011;28319;48.116;10.818;2023-11-18T22:35:51;1.47;;;1.47;;
41984;SDS011;28319;48.116;10.818;2023-11-18T22:40:53;1.67;;;1.37;;
41984;SDS011;28319;48.116;10.818;2023-11-18T22:45:57;1.17;;;1.17;;
41984;SDS011;28319;48.116;10.818;2023-11-18T22:50:59;0.80;;;0.80;;
41984;SDS011;28319;48.116;10.818;2023-11-18T22:56:01;0.90;;;0.80;;
41984;SDS011;28319;48.116;10.818;2023-11-18T23:01:05;1.93;;;0.63;;
41984;SDS011;28319;48.116;10.818;2023-11-18T23:06:10;0.70;;;0.70;;
41984;SDS011;28319;48.116;10.818;2023-11-18T23:11:19;0.90;;;0.77;;
41984;SDS011;28319;48.116;10.818;2023-11-18T23:16:24;0.70;;;0.70;;
41984;SDS011;28319;48.116;10.818;2023-11-18T23:21:26;0.57;;;0.57;;
41984;SDS011;28319;48.116;10.818;2023-11-18T23:26:29;0.87;;;0.83;;
41984;SDS011;28319;48.116;10.818;2023-11-18T23:31:32;0.60;;;0.60;;
41984;SDS011;28319;48.116;10.818;2023-11-18T23:36:34;0.53;;;0.53;;
41984;SDS011;28319;48.116;10.818;2023-11-18T23:41:39;0.50;;;0.50;;
41984;SDS011;28319;48.116;10.818;2023-11-18T23:46:42;0.30;;;0.30;;
41984;SDS011;28319;48.116;10.818;2023-11-18T23:51:44;1.77;;;0.90;;
41984;SDS011;28319;48.116;10.818;2023-11-18T23:56:47;1.43;;;0.70;;
